createdAt,value
2018-11-07T00:00:34.401Z,46.80
2018-11-07T00:03:04.053Z,44.33
2018-11-07T00:05:32.520Z,37.87
2018-11-07T00:08:01.103Z,40.63
2018-11-07T00:10:29.301Z,36.80
2018-11-07T00:12:57.544Z,40.27
2018-11-07T00:15:26.005Z,47.77
2018-11-07T00:17:54.309Z,49.07
2018-11-07T00:20:22.558Z,43.43
2018-11-07T00:22:50.795Z,42.80
2018-11-07T00:25:19.250Z,48.60
2018-11-07T00:27:47.551Z,47.30
2018-11-07T00:30:15.834Z,52.23
2018-11-07T00:32:44.114Z,54.57
2018-11-07T00:35:12.646Z,51.07
2018-11-07T00:37:42.038Z,50.37
2018-11-07T00:40:10.578Z,45.67
2018-11-07T00:42:38.784Z,44.73
2018-11-07T00:45:09.451Z,46.73
2018-11-07T00:47:37.923Z,49.57
2018-11-07T00:50:10.936Z,40.57
2018-11-07T00:52:39.336Z,45.13
2018-11-07T00:55:07.948Z,40.93
2018-11-07T00:57:36.362Z,46.27
2018-11-07T01:00:17.438Z,46.77
2018-11-07T01:02:46.635Z,48.00
2018-11-07T01:05:18.691Z,43.07
2018-11-07T01:07:48.872Z,44.83
2018-11-07T01:10:19.090Z,43.60
2018-11-07T01:12:48.052Z,43.23
2018-11-07T01:15:16.217Z,44.43
2018-11-07T01:17:44.448Z,42.17
2018-11-07T01:20:13.781Z,41.97
2018-11-07T01:22:42.140Z,43.77
2018-11-07T01:25:10.891Z,39.80
2018-11-07T01:27:39.457Z,41.53
2018-11-07T01:30:10.755Z,48.00
2018-11-07T01:32:39.368Z,40.27
2018-11-07T01:35:07.934Z,40.60
2018-11-07T01:37:36.126Z,42.17
2018-11-07T01:40:07.978Z,42.27
2018-11-07T01:42:36.296Z,40.77
2018-11-07T01:45:05.403Z,35.43
2018-11-07T01:47:33.603Z,36.40
2018-11-07T01:50:01.919Z,47.43
2018-11-07T01:52:30.549Z,41.13
2018-11-07T01:54:59.135Z,41.70
2018-11-07T01:57:27.873Z,41.50
2018-11-07T01:59:56.113Z,43.30
2018-11-07T02:02:24.604Z,39.10
2018-11-07T02:04:52.851Z,33.13
2018-11-07T02:07:21.180Z,37.73
2018-11-07T02:09:49.384Z,32.87
2018-11-07T02:12:17.857Z,38.17
2018-11-07T02:14:46.245Z,40.80
2018-11-07T02:17:20.692Z,38.23
2018-11-07T02:19:49.215Z,32.53
2018-11-07T02:22:17.575Z,33.37
2018-11-07T02:24:45.924Z,34.77
2018-11-07T02:27:14.196Z,38.70
2018-11-07T02:29:42.459Z,36.73
2018-11-07T02:32:10.915Z,34.13
2018-11-07T02:34:39.298Z,35.87
2018-11-07T02:37:07.929Z,44.07
2018-11-07T02:39:36.273Z,37.93
2018-11-07T02:42:04.794Z,34.00
2018-11-07T02:44:33.154Z,35.77
2018-11-07T02:47:01.490Z,38.27
2018-11-07T02:49:29.833Z,37.83
2018-11-07T02:51:58.108Z,42.33
2018-11-07T02:54:26.371Z,41.00
2018-11-07T02:56:54.603Z,32.10
2018-11-07T02:59:23.220Z,30.00
2018-11-07T03:01:51.992Z,28.30
2018-11-07T03:04:20.193Z,29.53
2018-11-07T03:06:48.300Z,36.13
2018-11-07T03:09:16.460Z,32.40
2018-11-07T03:11:44.652Z,32.50
2018-11-07T03:14:12.837Z,30.90
2018-11-07T03:16:41.098Z,31.10
2018-11-07T03:19:09.257Z,30.73
2018-11-07T03:21:37.633Z,31.23
2018-11-07T03:24:06.498Z,28.83
2018-11-07T03:26:35.013Z,30.77
2018-11-07T03:29:03.530Z,29.40
2018-11-07T03:31:32.145Z,30.67
2018-11-07T03:34:00.334Z,29.83
2018-11-07T03:36:28.543Z,28.87
2018-11-07T03:38:57.194Z,25.57
2018-11-07T03:41:25.451Z,30.67
2018-11-07T03:43:53.874Z,25.87
2018-11-07T03:46:22.094Z,28.80
2018-11-07T03:48:50.743Z,27.10
2018-11-07T03:51:19.028Z,25.77
2018-11-07T03:53:47.427Z,27.17
2018-11-07T03:56:15.759Z,27.00
2018-11-07T03:58:44.759Z,27.13
2018-11-07T04:01:13.092Z,26.97
2018-11-07T04:03:41.552Z,26.87
2018-11-07T04:06:10.212Z,26.90
2018-11-07T04:08:38.564Z,27.07
2018-11-07T04:11:07.123Z,28.33
2018-11-07T04:13:35.467Z,30.67
2018-11-07T04:16:03.679Z,30.00
2018-11-07T04:18:31.980Z,29.13
2018-11-07T04:21:00.401Z,36.33
2018-11-07T04:23:28.670Z,36.20
2018-11-07T04:25:57.206Z,35.83
2018-11-07T04:28:25.437Z,34.33
2018-11-07T04:30:53.638Z,33.03
2018-11-07T04:33:21.919Z,32.67
2018-11-07T04:35:50.263Z,37.07
2018-11-07T04:38:18.566Z,30.97
2018-11-07T04:40:46.809Z,31.30
2018-11-07T04:43:15.220Z,31.50
2018-11-07T04:45:43.512Z,32.57
2018-11-07T04:48:11.765Z,29.87
2018-11-07T04:50:39.963Z,33.93
2018-11-07T04:53:08.253Z,30.00
2018-11-07T04:55:36.563Z,27.67
2018-11-07T04:58:04.914Z,32.77
2018-11-07T05:00:33.235Z,37.17
2018-11-07T05:03:01.561Z,33.77
2018-11-07T05:05:29.987Z,37.93
2018-11-07T05:07:58.315Z,35.63
2018-11-07T05:10:26.774Z,35.60
2018-11-07T05:12:55.082Z,39.83
2018-11-07T05:15:23.600Z,49.83
2018-11-07T05:17:51.970Z,44.87
2018-11-07T05:20:20.234Z,40.37
2018-11-07T05:22:48.302Z,36.33
2018-11-07T05:25:16.665Z,35.07
2018-11-07T05:27:44.989Z,39.33
2018-11-07T05:30:13.484Z,37.03
2018-11-07T05:32:42.042Z,40.23
2018-11-07T05:35:10.452Z,33.60
2018-11-07T05:37:38.598Z,33.10
2018-11-07T05:40:07.077Z,48.70
2018-11-07T05:42:35.419Z,61.77
2018-11-07T05:45:03.879Z,52.47
2018-11-07T05:47:32.252Z,56.30
2018-11-07T05:50:00.704Z,66.87
2018-11-07T05:52:29.116Z,76.43
2018-11-07T05:54:57.631Z,73.83
2018-11-07T05:57:25.932Z,59.33
2018-11-07T05:59:54.408Z,59.47
2018-11-07T06:02:22.656Z,49.30
2018-11-07T06:04:51.080Z,48.43
2018-11-07T06:07:19.701Z,53.17
2018-11-07T06:09:48.059Z,43.87
2018-11-07T06:12:16.289Z,47.43
2018-11-07T06:14:44.446Z,64.13
2018-11-07T06:17:12.657Z,48.90
2018-11-07T06:19:41.097Z,46.83
2018-11-07T06:22:09.326Z,43.40
2018-11-07T06:24:38.281Z,46.97
2018-11-07T06:27:06.508Z,50.93
2018-11-07T06:29:35.122Z,50.97
2018-11-07T06:32:03.378Z,40.43
2018-11-07T06:34:31.710Z,37.73
2018-11-07T06:37:00.026Z,37.60
2018-11-07T06:39:28.374Z,40.77
2018-11-07T06:41:56.762Z,44.13
2018-11-07T06:44:25.264Z,42.27
2018-11-07T06:46:53.541Z,42.67
2018-11-07T06:49:22.028Z,37.83
2018-11-07T06:51:50.514Z,43.30
2018-11-07T06:54:18.907Z,40.93
2018-11-07T06:56:47.365Z,40.07
2018-11-07T06:59:15.834Z,47.67
2018-11-07T07:01:44.215Z,40.73
2018-11-07T07:04:13.161Z,42.90
2018-11-07T07:06:41.453Z,47.27
2018-11-07T07:09:10.194Z,39.63
2018-11-07T07:11:38.821Z,45.57
2018-11-07T07:14:07.465Z,48.73
2018-11-07T07:16:35.971Z,52.90
2018-11-07T07:19:04.698Z,65.07
2018-11-07T07:21:33.224Z,56.57
2018-11-07T07:24:01.900Z,42.37
2018-11-07T07:26:31.234Z,36.53
2018-11-07T07:29:00.103Z,39.20
2018-11-07T07:31:28.370Z,36.27
2018-11-07T07:33:57.683Z,35.23
2018-11-07T07:36:25.974Z,30.47
2018-11-07T07:38:54.444Z,32.00
2018-11-07T07:41:22.673Z,38.20
2018-11-07T07:43:51.241Z,37.60
2018-11-07T07:46:19.429Z,31.97
2018-11-07T07:48:47.644Z,34.93
2018-11-07T07:51:15.896Z,34.97
2018-11-07T07:53:44.184Z,38.87
2018-11-07T07:56:12.340Z,26.93
2018-11-07T07:58:40.508Z,19.73
2018-11-07T08:01:08.748Z,16.43
2018-11-07T08:03:37.192Z,19.17
2018-11-07T08:06:05.888Z,17.93
2018-11-07T08:08:34.266Z,15.63
2018-11-07T08:11:02.901Z,16.80
2018-11-07T08:13:31.996Z,15.70
2018-11-07T08:16:00.529Z,16.07
2018-11-07T08:18:28.894Z,13.93
2018-11-07T08:20:57.225Z,11.73
2018-11-07T08:23:25.415Z,12.73
2018-11-07T08:25:53.739Z,13.10
2018-11-07T08:28:22.067Z,12.00
2018-11-07T08:30:53.609Z,12.37
2018-11-07T08:33:22.766Z,11.67
2018-11-07T08:35:51.175Z,10.90
2018-11-07T08:38:19.359Z,11.87
2018-11-07T08:40:47.792Z,13.23
2018-11-07T08:43:15.971Z,13.47
2018-11-07T08:45:44.383Z,12.43
2018-11-07T08:48:12.820Z,13.97
2018-11-07T08:50:40.968Z,11.20
2018-11-07T08:53:09.160Z,14.27
2018-11-07T08:55:37.806Z,14.13
2018-11-07T08:58:05.983Z,12.43
2018-11-07T09:00:34.238Z,13.97
2018-11-07T09:03:02.551Z,13.33
2018-11-07T09:05:30.929Z,12.40
2018-11-07T09:07:59.169Z,10.53
2018-11-07T09:10:27.332Z,10.77
2018-11-07T09:12:55.813Z,10.70
2018-11-07T09:15:23.994Z,9.87
2018-11-07T09:17:52.343Z,10.27
2018-11-07T09:20:21.850Z,10.53
2018-11-07T09:22:50.200Z,12.23
2018-11-07T09:25:18.904Z,11.63
2018-11-07T09:27:47.537Z,12.10
2018-11-07T09:30:19.039Z,10.43
2018-11-07T09:32:47.833Z,9.57
2018-11-07T09:35:16.039Z,9.20
2018-11-07T09:37:44.273Z,12.03
2018-11-07T09:40:14.604Z,9.53
2018-11-07T09:42:43.385Z,10.67
2018-11-07T09:45:13.619Z,11.47
2018-11-07T09:47:42.787Z,10.43
2018-11-07T09:50:12.135Z,11.10
2018-11-07T09:52:41.079Z,12.33
2018-11-07T09:55:11.771Z,9.53
2018-11-07T09:57:40.536Z,8.70
2018-11-07T10:00:12.428Z,13.03
2018-11-07T10:02:41.860Z,8.97
2018-11-07T10:05:11.217Z,10.70
2018-11-07T10:07:40.473Z,12.00
2018-11-07T10:10:12.017Z,9.20
2018-11-07T10:12:40.986Z,8.63
2018-11-07T10:15:10.724Z,8.30
2018-11-07T10:17:39.169Z,8.93
2018-11-07T10:20:12.603Z,10.23
2018-11-07T10:22:41.700Z,11.03
2018-11-07T10:25:10.678Z,7.70
2018-11-07T10:27:39.503Z,8.43
2018-11-07T10:30:12.171Z,8.17
2018-11-07T10:32:41.414Z,9.30
2018-11-07T10:35:09.924Z,10.03
2018-11-07T10:37:38.371Z,9.20
2018-11-07T10:40:12.692Z,9.67
2018-11-07T10:42:41.072Z,7.83
2018-11-07T10:45:10.408Z,7.30
2018-11-07T10:47:45.448Z,9.60
2018-11-07T10:50:14.644Z,7.67
2018-11-07T10:52:43.816Z,9.03
2018-11-07T10:55:13.444Z,10.00
2018-11-07T10:57:41.967Z,11.37
2018-11-07T11:00:18.133Z,12.37
2018-11-07T11:03:56.228Z,14.20
2018-11-07T11:06:24.593Z,9.73
2018-11-07T11:08:53.238Z,11.73
2018-11-07T11:11:22.301Z,7.17
2018-11-07T11:13:50.747Z,9.53
2018-11-07T11:16:19.164Z,9.03
2018-11-07T11:18:47.735Z,8.03
2018-11-07T11:21:15.926Z,13.03
2018-11-07T11:23:44.138Z,6.60
2018-11-07T11:26:12.942Z,5.50
2018-11-07T11:28:41.438Z,6.80
2018-11-07T11:31:10.216Z,5.20
2018-11-07T11:33:38.479Z,5.80
2018-11-07T11:36:06.714Z,7.00
2018-11-07T11:38:35.443Z,6.00
2018-11-07T11:41:04.015Z,6.47
2018-11-07T11:43:32.410Z,6.07
2018-11-07T11:46:00.712Z,11.23
2018-11-07T11:48:29.394Z,9.27
2018-11-07T11:50:57.556Z,6.63
2018-11-07T11:53:25.843Z,6.37
2018-11-07T11:55:54.191Z,6.07
2018-11-07T11:58:22.680Z,10.90
2018-11-07T12:00:51.011Z,6.90
2018-11-07T12:03:19.280Z,8.30
2018-11-07T12:05:47.763Z,8.23
2018-11-07T12:08:16.100Z,7.50
2018-11-07T12:10:44.808Z,7.97
2018-11-07T12:13:13.609Z,7.03
2018-11-07T12:15:42.095Z,6.60
2018-11-07T12:18:10.457Z,7.40
2018-11-07T12:20:39.010Z,7.03
2018-11-07T12:23:07.462Z,6.83
2018-11-07T12:25:35.813Z,4.70
2018-11-07T12:28:04.393Z,4.40
2018-11-07T12:30:32.781Z,3.50
2018-11-07T12:33:01.003Z,3.47
2018-11-07T12:35:29.410Z,3.17
2018-11-07T12:37:57.730Z,3.73
2018-11-07T12:40:25.987Z,4.30
2018-11-07T12:42:54.644Z,2.27
2018-11-07T12:45:22.810Z,2.87
2018-11-07T12:47:51.202Z,4.53
2018-11-07T12:50:23.528Z,3.30
2018-11-07T12:52:51.817Z,4.50
2018-11-07T12:55:21.119Z,5.20
2018-11-07T12:57:49.396Z,3.67
2018-11-07T13:00:23.579Z,2.27
2018-11-07T13:02:52.217Z,3.20
2018-11-07T13:05:21.373Z,6.00
2018-11-07T13:07:50.669Z,5.07
2018-11-07T13:10:19.956Z,2.70
2018-11-07T13:12:49.185Z,2.80
2018-11-07T13:15:17.786Z,2.10
2018-11-07T13:17:47.604Z,2.30
2018-11-07T13:20:18.020Z,3.30
2018-11-07T13:22:48.240Z,2.13
2018-11-07T13:25:17.417Z,2.30
2018-11-07T13:27:45.563Z,2.07
2018-11-07T13:30:14.850Z,2.13
2018-11-07T13:32:43.215Z,2.83
2018-11-07T13:35:12.434Z,2.50
2018-11-07T13:37:41.808Z,2.43
2018-11-07T13:40:13.197Z,2.87
2018-11-07T13:42:41.710Z,2.43
2018-11-07T13:45:11.593Z,2.30
2018-11-07T13:47:40.958Z,4.00
2018-11-07T13:50:10.052Z,3.17
2018-11-07T13:52:38.458Z,2.40
2018-11-07T13:55:08.594Z,4.20
2018-11-07T13:57:37.115Z,5.70
2018-11-07T14:00:09.927Z,2.63
2018-11-07T14:02:38.339Z,2.77
2018-11-07T14:05:07.987Z,3.57
2018-11-07T14:07:36.565Z,4.97
2018-11-07T14:10:07.955Z,2.13
2018-11-07T14:12:36.499Z,2.70
2018-11-07T14:15:07.571Z,4.40
2018-11-07T14:17:36.085Z,2.47
2018-11-07T14:20:05.996Z,2.10
2018-11-07T14:22:34.263Z,2.30
2018-11-07T14:25:02.720Z,3.97
2018-11-07T14:27:31.212Z,2.77
2018-11-07T14:29:59.589Z,3.33
2018-11-07T14:32:29.162Z,2.93
2018-11-07T14:34:57.639Z,2.97
2018-11-07T14:37:26.103Z,2.90
2018-11-07T14:39:54.365Z,3.70
2018-11-07T14:42:22.774Z,3.57
2018-11-07T14:44:51.121Z,4.10
2018-11-07T14:47:20.496Z,7.43
2018-11-07T14:49:48.693Z,3.93
2018-11-07T14:52:17.337Z,3.53
2018-11-07T14:54:45.621Z,3.57
2018-11-07T14:57:14.261Z,2.97
2018-11-07T14:59:42.599Z,6.10
2018-11-07T15:02:10.905Z,3.73
2018-11-07T15:04:39.091Z,4.73
2018-11-07T15:07:07.490Z,7.20
2018-11-07T15:09:35.686Z,6.50
2018-11-07T15:12:04.463Z,11.33
2018-11-07T15:14:32.716Z,5.83
2018-11-07T15:17:00.995Z,10.03
2018-11-07T15:19:30.435Z,7.23
2018-11-07T15:21:59.611Z,8.63
2018-11-07T15:24:28.695Z,8.87
2018-11-07T15:26:56.892Z,12.90
2018-11-07T15:29:25.198Z,7.80
2018-11-07T15:31:53.576Z,10.93
2018-11-07T15:34:22.068Z,9.77
2018-11-07T15:36:50.329Z,10.83
2018-11-07T15:39:19.107Z,6.53
2018-11-07T15:41:47.281Z,8.03
2018-11-07T15:44:15.745Z,12.70
2018-11-07T15:46:43.933Z,12.23
2018-11-07T15:49:12.374Z,17.87
2018-11-07T15:51:40.620Z,10.97
2018-11-07T15:54:08.942Z,10.23
2018-11-07T15:56:37.173Z,10.47
2018-11-07T15:59:05.398Z,8.50
2018-11-07T16:01:33.573Z,6.30
2018-11-07T16:04:02.469Z,11.03
2018-11-07T16:06:31.021Z,9.37
2018-11-07T16:08:59.570Z,12.30
2018-11-07T16:11:28.875Z,12.60
2018-11-07T16:13:57.103Z,10.47
2018-11-07T16:16:26.327Z,16.50
2018-11-07T16:18:54.785Z,14.17
2018-11-07T16:21:23.224Z,26.73
2018-11-07T16:23:51.597Z,13.30
2018-11-07T16:26:19.987Z,11.63
2018-11-07T16:28:48.306Z,10.00
2018-11-07T16:31:16.666Z,7.23
2018-11-07T16:33:45.157Z,7.40
2018-11-07T16:36:13.792Z,10.50
2018-11-07T16:38:42.123Z,12.63
2018-11-07T16:41:10.797Z,15.93
2018-11-07T16:43:39.590Z,16.37
2018-11-07T16:46:07.868Z,13.67
2018-11-07T16:48:36.533Z,12.20
2018-11-07T16:51:05.041Z,13.57
2018-11-07T16:53:33.308Z,14.90
2018-11-07T16:56:01.688Z,10.47
2018-11-07T16:58:29.989Z,15.93
2018-11-07T17:00:58.589Z,9.97
2018-11-07T17:03:26.927Z,11.10
2018-11-07T17:05:55.248Z,13.97
2018-11-07T17:08:23.822Z,11.80
2018-11-07T17:10:52.288Z,13.30
2018-11-07T17:13:20.769Z,11.07
2018-11-07T17:15:49.462Z,11.90
2018-11-07T17:18:36.853Z,12.30
2018-11-07T17:21:27.034Z,13.73
2018-11-07T17:23:57.726Z,12.60
2018-11-07T17:26:25.997Z,15.37
2018-11-07T17:28:54.169Z,14.63
2018-11-07T17:31:22.534Z,15.30
2018-11-07T17:33:50.910Z,11.30
2018-11-07T17:36:19.376Z,12.63
2018-11-07T17:38:47.798Z,16.60
2018-11-07T17:41:16.002Z,13.43
2018-11-07T17:43:44.405Z,13.13
2018-11-07T17:46:13.152Z,13.17
2018-11-07T17:48:41.956Z,26.80
2018-11-07T17:51:10.544Z,11.13
2018-11-07T17:53:38.792Z,13.13
2018-11-07T17:56:07.877Z,10.03
2018-11-07T17:58:36.736Z,12.73
2018-11-07T18:01:05.838Z,11.67
2018-11-07T18:03:34.419Z,11.37
2018-11-07T18:06:02.644Z,14.30
2018-11-07T18:08:31.040Z,9.97
2018-11-07T18:10:59.765Z,7.70
2018-11-07T18:13:28.622Z,11.77
2018-11-07T18:15:57.063Z,11.90
2018-11-07T18:18:25.562Z,11.87
2018-11-07T18:20:54.220Z,10.23
2018-11-07T18:23:27.053Z,10.73
2018-11-07T18:25:55.581Z,10.60
2018-11-07T18:28:24.842Z,12.73
2018-11-07T18:30:53.554Z,10.80
2018-11-07T18:33:22.431Z,10.37
2018-11-07T18:35:50.813Z,12.97
2018-11-07T18:38:19.166Z,13.23
2018-11-07T18:40:48.691Z,14.83
2018-11-07T18:43:17.154Z,13.70
2018-11-07T18:45:45.272Z,11.40
2018-11-07T18:48:13.614Z,10.03
2018-11-07T18:50:42.057Z,10.43
2018-11-07T18:53:10.409Z,10.43
2018-11-07T18:55:38.790Z,12.73
2018-11-07T18:58:06.980Z,10.57
2018-11-07T19:00:35.540Z,14.67
2018-11-07T19:03:04.056Z,14.67
2018-11-07T19:05:32.704Z,10.13
2018-11-07T19:08:01.624Z,11.97
2018-11-07T19:10:40.116Z,12.37
2018-11-07T19:13:09.664Z,13.27
2018-11-07T19:15:38.140Z,19.13
2018-11-07T19:18:06.920Z,14.10
2018-11-07T19:20:35.223Z,17.30
2018-11-07T19:23:03.741Z,14.93
2018-11-07T19:25:33.365Z,15.03
2018-11-07T19:28:01.704Z,11.77
2018-11-07T19:30:30.116Z,11.90
2018-11-07T19:32:58.391Z,13.10
2018-11-07T19:35:26.745Z,13.10
2018-11-07T19:37:55.213Z,13.37
2018-11-07T19:40:25.135Z,13.13
2018-11-07T19:42:53.686Z,13.60
2018-11-07T19:45:22.682Z,14.20
2018-11-07T19:47:51.388Z,13.43
2018-11-07T19:50:20.487Z,12.73
2018-11-07T19:52:49.655Z,12.77
2018-11-07T19:55:19.757Z,13.97
2018-11-07T19:57:51.847Z,14.47
2018-11-07T20:00:21.031Z,13.50
2018-11-07T20:02:49.195Z,12.37
2018-11-07T20:05:17.591Z,16.43
2018-11-07T20:07:46.302Z,13.63
2018-11-07T20:10:17.705Z,15.13
2018-11-07T20:12:46.308Z,18.07
2018-11-07T20:15:15.664Z,12.27
2018-11-07T20:17:44.194Z,11.67
2018-11-07T20:20:13.157Z,12.40
2018-11-07T20:22:41.479Z,13.20
2018-11-07T20:25:11.060Z,14.30
2018-11-07T20:27:39.441Z,13.50
2018-11-07T20:30:10.281Z,13.93
2018-11-07T20:32:38.676Z,14.13
2018-11-07T20:35:09.482Z,12.87
2018-11-07T20:37:37.630Z,13.43
2018-11-07T20:40:09.396Z,12.63
2018-11-07T20:42:38.306Z,12.60
2018-11-07T20:45:08.791Z,17.40
2018-11-07T20:47:37.496Z,18.90
2018-11-07T20:50:09.433Z,21.00
2018-11-07T20:52:38.498Z,16.80
2018-11-07T20:55:07.259Z,18.87
2018-11-07T20:57:36.250Z,17.53
2018-11-07T21:00:08.982Z,17.27
2018-11-07T21:02:37.354Z,18.77
2018-11-07T21:05:06.504Z,20.87
2018-11-07T21:07:35.102Z,20.30
2018-11-07T21:10:03.883Z,17.93
2018-11-07T21:12:32.397Z,18.07
2018-11-07T21:15:00.876Z,17.60
2018-11-07T21:17:29.561Z,18.83
2018-11-07T21:19:58.297Z,19.30
2018-11-07T21:22:27.315Z,20.30
2018-11-07T21:24:55.809Z,16.43
2018-11-07T21:27:24.181Z,16.80
2018-11-07T21:29:52.849Z,17.17
2018-11-07T21:32:22.096Z,16.80
2018-11-07T21:34:51.301Z,17.00
2018-11-07T21:37:20.715Z,19.20
2018-11-07T21:39:49.649Z,18.17
2018-11-07T21:42:18.052Z,19.17
2018-11-07T21:44:46.548Z,15.43
2018-11-07T21:47:15.019Z,19.17
2018-11-07T21:49:43.210Z,17.27
2018-11-07T21:52:11.637Z,19.00
2018-11-07T21:54:40.105Z,20.30
2018-11-07T21:57:08.541Z,18.50
2018-11-07T21:59:37.372Z,19.17
2018-11-07T22:02:06.407Z,18.00
2018-11-07T22:04:34.612Z,19.63
2018-11-07T22:07:03.168Z,18.43
2018-11-07T22:09:32.024Z,20.80
2018-11-07T22:12:02.657Z,18.77
2018-11-07T22:14:32.389Z,15.50
2018-11-07T22:17:01.832Z,16.57
2018-11-07T22:19:30.566Z,17.47
2018-11-07T22:21:59.946Z,16.70
2018-11-07T22:24:28.421Z,19.50
2018-11-07T22:26:58.162Z,19.00
2018-11-07T22:29:26.988Z,18.27
2018-11-07T22:31:56.646Z,19.80
2018-11-07T22:34:24.893Z,17.00
2018-11-07T22:36:53.279Z,18.37
2018-11-07T22:39:21.564Z,19.03
2018-11-07T22:41:49.904Z,17.33
2018-11-07T22:44:18.082Z,16.73
2018-11-07T22:46:46.304Z,18.67
2018-11-07T22:49:14.625Z,20.47
2018-11-07T22:51:43.299Z,15.73
2018-11-07T22:54:12.304Z,19.17
2018-11-07T22:56:40.600Z,17.73
2018-11-07T22:59:09.481Z,19.43
2018-11-07T23:01:38.662Z,16.97
2018-11-07T23:04:08.193Z,19.00
2018-11-07T23:06:38.124Z,16.03
2018-11-07T23:09:10.285Z,19.83
2018-11-07T23:11:39.599Z,19.73
2018-11-07T23:14:09.205Z,16.87
2018-11-07T23:16:37.409Z,20.13
2018-11-07T23:19:06.176Z,21.07
2018-11-07T23:21:34.525Z,18.37
2018-11-07T23:24:02.911Z,17.40
2018-11-07T23:26:31.375Z,15.87
2018-11-07T23:28:59.914Z,21.43
2018-11-07T23:31:28.915Z,17.80
2018-11-07T23:33:57.126Z,16.70
2018-11-07T23:36:25.421Z,15.87
2018-11-07T23:38:54.154Z,17.20
2018-11-07T23:41:22.666Z,14.07
2018-11-07T23:43:50.815Z,16.70
2018-11-07T23:46:19.017Z,14.80
2018-11-07T23:48:47.358Z,15.57
2018-11-07T23:51:15.656Z,15.63
2018-11-07T23:53:44.032Z,14.53
2018-11-07T23:56:12.197Z,17.43
2018-11-07T23:58:40.499Z,19.50
